sensor_id;sensor_type;location;lat;lon;timestamp;pressure;altitude;pressure_sealevel;temperature;humidity
22938;BME280;11634;42.734;23.298;2022-12-16T00:01:24;54402.53;;;-139.56;100.00
22938;BME280;11634;42.734;23.298;2022-12-16T00:03:54;54402.53;;;-139.56;100.00
22938;BME280;11634;42.734;23.298;2022-12-16T00:06:22;54402.53;;;-139.56;100.00
22938;BME280;11634;42.734;23.298;2022-12-16T00:08:48;54402.53;;;-139.56;100.00
22938;BME280;11634;42.734;23.298;2022-12-16T00:11:14;54402.53;;;-139.56;100.00
22938;BME280;11634;42.734;23.298;2022-12-16T00:13:39;54402.53;;;-139.56;100.00
22938;BME280;11634;42.734;23.298;2022-12-16T00:16:10;54402.53;;;-139.56;100.00
22938;BME280;11634;42.734;23.298;2022-12-16T00:18:37;54402.53;;;-139.56;100.00
22938;BME280;11634;42.734;23.298;2022-12-16T00:21:03;54402.53;;;-139.56;100.00
22938;BME280;11634;42.734;23.298;2022-12-16T00:23:29;54402.53;;;-139.56;100.00
22938;BME280;11634;42.734;23.298;2022-12-16T00:25:54;54402.53;;;-139.56;100.00
22938;BME280;11634;42.734;23.298;2022-12-16T00:28:20;54402.53;;;-139.56;100.00
22938;BME280;11634;42.734;23.298;2022-12-16T00:30:51;54402.53;;;-139.56;100.00
22938;BME280;11634;42.734;23.298;2022-12-16T00:33:19;54402.53;;;-139.56;100.00
22938;BME280;11634;42.734;23.298;2022-12-16T00:35:46;54402.53;;;-139.56;100.00
22938;BME280;11634;42.734;23.298;2022-12-16T00:38:13;54402.53;;;-139.56;100.00
22938;BME280;11634;42.734;23.298;2022-12-16T00:40:39;54402.53;;;-139.56;100.00
22938;BME280;11634;42.734;23.298;2022-12-16T00:43:04;54402.53;;;-139.56;100.00
22938;BME280;11634;42.734;23.298;2022-12-16T00:45:30;54402.53;;;-139.56;100.00
22938;BME280;11634;42.734;23.298;2022-12-16T00:47:56;54402.53;;;-139.56;100.00
22938;BME280;11634;42.734;23.298;2022-12-16T00:50:22;54402.53;;;-139.56;100.00
22938;BME280;11634;42.734;23.298;2022-12-16T00:52:48;54402.53;;;-139.56;100.00
22938;BME280;11634;42.734;23.298;2022-12-16T00:55:15;54402.53;;;-139.56;100.00
22938;BME280;11634;42.734;23.298;2022-12-16T00:57:42;54402.53;;;-139.56;100.00
22938;BME280;11634;42.734;23.298;2022-12-16T01:00:09;54402.53;;;-139.56;100.00
22938;BME280;11634;42.734;23.298;2022-12-16T01:02:45;54402.53;;;-139.56;100.00
22938;BME280;11634;42.734;23.298;2022-12-16T01:05:14;54402.53;;;-139.56;100.00
22938;BME280;11634;42.734;23.298;2022-12-16T01:07:40;54402.53;;;-139.56;100.00
22938;BME280;11634;42.734;23.298;2022-12-16T01:10:07;54402.53;;;-139.56;100.00
22938;BME280;11634;42.734;23.298;2022-12-16T01:12:33;54402.53;;;-139.56;100.00
22938;BME280;11634;42.734;23.298;2022-12-16T01:14:59;54402.53;;;-139.56;100.00
22938;BME280;11634;42.734;23.298;2022-12-16T01:17:25;54402.53;;;-139.56;100.00
22938;BME280;11634;42.734;23.298;2022-12-16T01:19:52;54402.53;;;-139.56;100.00
22938;BME280;11634;42.734;23.298;2022-12-16T01:22:18;54402.53;;;-139.56;100.00
22938;BME280;11634;42.734;23.298;2022-12-16T01:24:45;54402.53;;;-139.56;100.00
22938;BME280;11634;42.734;23.298;2022-12-16T01:27:11;54402.53;;;-139.56;100.00
22938;BME280;11634;42.734;23.298;2022-12-16T01:29:37;54402.53;;;-139.56;100.00
22938;BME280;11634;42.734;23.298;2022-12-16T01:32:03;54402.53;;;-139.56;100.00
22938;BME280;11634;42.734;23.298;2022-12-16T01:34:30;54402.53;;;-139.56;100.00
22938;BME280;11634;42.734;23.298;2022-12-16T01:36:56;54402.53;;;-139.56;100.00
22938;BME280;11634;42.734;23.298;2022-12-16T01:39:21;54402.53;;;-139.56;100.00
22938;BME280;11634;42.734;23.298;2022-12-16T01:41:47;54402.53;;;-139.56;100.00
22938;BME280;11634;42.734;23.298;2022-12-16T01:44:22;54402.53;;;-139.56;100.00
22938;BME280;11634;42.734;23.298;2022-12-16T01:46:50;54402.53;;;-139.56;100.00
22938;BME280;11634;42.734;23.298;2022-12-16T01:49:23;54402.53;;;-139.56;100.00
22938;BME280;11634;42.734;23.298;2022-12-16T01:51:51;54402.53;;;-139.56;100.00
22938;BME280;11634;42.734;23.298;2022-12-16T01:54:21;54402.53;;;-139.56;100.00
22938;BME280;11634;42.734;23.298;2022-12-16T01:56:56;54402.53;;;-139.56;100.00
22938;BME280;11634;42.734;23.298;2022-12-16T01:59:27;54402.53;;;-139.56;100.00
22938;BME280;11634;42.734;23.298;2022-12-16T02:02:04;54402.53;;;-139.56;100.00
22938;BME280;11634;42.734;23.298;2022-12-16T02:04:31;54402.53;;;-139.56;100.00
22938;BME280;11634;42.734;23.298;2022-12-16T02:06:57;54402.53;;;-139.56;100.00
22938;BME280;11634;42.734;23.298;2022-12-16T02:09:23;54402.53;;;-139.56;100.00
22938;BME280;11634;42.734;23.298;2022-12-16T02:26:18;54402.53;;;-139.56;100.00
22938;BME280;11634;42.734;23.298;2022-12-16T02:31:50;54402.53;;;-139.56;100.00
22938;BME280;11634;42.734;23.298;2022-12-16T02:34:35;54402.53;;;-139.56;100.00
22938;BME280;11634;42.734;23.298;2022-12-16T02:40:22;54402.53;;;-139.56;100.00
22938;BME280;11634;42.734;23.298;2022-12-16T02:42:59;54402.53;;;-139.56;100.00
22938;BME280;11634;42.734;23.298;2022-12-16T02:45:29;54402.53;;;-139.56;100.00
22938;BME280;11634;42.734;23.298;2022-12-16T02:47:56;54402.53;;;-139.56;100.00
22938;BME280;11634;42.734;23.298;2022-12-16T02:50:42;54402.53;;;-139.56;100.00
22938;BME280;11634;42.734;23.298;2022-12-16T02:53:10;54402.53;;;-139.56;100.00
22938;BME280;11634;42.734;23.298;2022-12-16T03:01:16;54402.53;;;-139.56;100.00
22938;BME280;11634;42.734;23.298;2022-12-16T03:06:46;54402.53;;;-139.56;100.00
22938;BME280;11634;42.734;23.298;2022-12-16T03:09:22;54402.53;;;-139.56;100.00
22938;BME280;11634;42.734;23.298;2022-12-16T03:11:50;54402.53;;;-139.56;100.00
22938;BME280;11634;42.734;23.298;2022-12-16T03:14:18;54402.53;;;-139.56;100.00
22938;BME280;11634;42.734;23.298;2022-12-16T03:16:46;54402.53;;;-139.56;100.00
22938;BME280;11634;42.734;23.298;2022-12-16T03:19:14;54402.53;;;-139.56;100.00
22938;BME280;11634;42.734;23.298;2022-12-16T03:21:47;54402.53;;;-139.56;100.00
22938;BME280;11634;42.734;23.298;2022-12-16T03:24:16;54402.53;;;-139.56;100.00
22938;BME280;11634;42.734;23.298;2022-12-16T03:29:20;54402.53;;;-139.56;100.00
22938;BME280;11634;42.734;23.298;2022-12-16T03:31:54;54402.53;;;-139.56;100.00
22938;BME280;11634;42.734;23.298;2022-12-16T03:37:10;54402.53;;;-139.56;100.00
22938;BME280;11634;42.734;23.298;2022-12-16T03:39:43;54402.53;;;-139.56;100.00
22938;BME280;11634;42.734;23.298;2022-12-16T03:42:11;54402.53;;;-139.56;100.00
22938;BME280;11634;42.734;23.298;2022-12-16T03:44:39;54402.53;;;-139.56;100.00
22938;BME280;11634;42.734;23.298;2022-12-16T03:47:04;54402.53;;;-139.56;100.00
22938;BME280;11634;42.734;23.298;2022-12-16T03:49:32;54402.53;;;-139.56;100.00
22938;BME280;11634;42.734;23.298;2022-12-16T03:51:59;54402.53;;;-139.56;100.00
22938;BME280;11634;42.734;23.298;2022-12-16T03:54:26;54402.53;;;-139.56;100.00
22938;BME280;11634;42.734;23.298;2022-12-16T03:56:52;54402.53;;;-139.56;100.00
22938;BME280;11634;42.734;23.298;2022-12-16T03:59:18;54402.53;;;-139.56;100.00
22938;BME280;11634;42.734;23.298;2022-12-16T04:01:44;54402.53;;;-139.56;100.00
22938;BME280;11634;42.734;23.298;2022-12-16T04:04:10;54402.53;;;-139.56;100.00
22938;BME280;11634;42.734;23.298;2022-12-16T04:06:36;54402.53;;;-139.56;100.00
22938;BME280;11634;42.734;23.298;2022-12-16T04:09:01;54402.53;;;-139.56;100.00
22938;BME280;11634;42.734;23.298;2022-12-16T04:11:28;54402.53;;;-139.56;100.00
22938;BME280;11634;42.734;23.298;2022-12-16T04:14:12;54402.53;;;-139.56;100.00
22938;BME280;11634;42.734;23.298;2022-12-16T04:16:56;54402.53;;;-139.56;100.00
22938;BME280;11634;42.734;23.298;2022-12-16T04:19:44;54402.53;;;-139.56;100.00
22938;BME280;11634;42.734;23.298;2022-12-16T04:22:35;54402.53;;;-139.56;100.00
22938;BME280;11634;42.734;23.298;2022-12-16T04:25:22;54402.53;;;-139.56;100.00
22938;BME280;11634;42.734;23.298;2022-12-16T04:27:50;54402.53;;;-139.56;100.00
22938;BME280;11634;42.734;23.298;2022-12-16T04:30:17;54402.53;;;-139.56;100.00
22938;BME280;11634;42.734;23.298;2022-12-16T04:32:46;54402.53;;;-139.56;100.00
22938;BME280;11634;42.734;23.298;2022-12-16T04:35:35;54402.53;;;-139.56;100.00
22938;BME280;11634;42.734;23.298;2022-12-16T04:38:19;54402.53;;;-139.56;100.00
22938;BME280;11634;42.734;23.298;2022-12-16T04:41:08;54402.53;;;-139.56;100.00
22938;BME280;11634;42.734;23.298;2022-12-16T04:43:52;54402.53;;;-139.56;100.00
22938;BME280;11634;42.734;23.298;2022-12-16T04:46:37;54402.53;;;-139.56;100.00
22938;BME280;11634;42.734;23.298;2022-12-16T04:49:20;54402.53;;;-139.56;100.00
22938;BME280;11634;42.734;23.298;2022-12-16T04:52:05;54402.53;;;-139.56;100.00
22938;BME280;11634;42.734;23.298;2022-12-16T04:54:49;54402.53;;;-139.56;100.00
22938;BME280;11634;42.734;23.298;2022-12-16T04:57:34;54402.53;;;-139.56;100.00
22938;BME280;11634;42.734;23.298;2022-12-16T05:00:18;54402.53;;;-139.56;100.00
22938;BME280;11634;42.734;23.298;2022-12-16T05:03:04;54402.53;;;-139.56;100.00
22938;BME280;11634;42.734;23.298;2022-12-16T05:05:49;54402.53;;;-139.56;100.00
22938;BME280;11634;42.734;23.298;2022-12-16T05:08:33;54402.53;;;-139.56;100.00
22938;BME280;11634;42.734;23.298;2022-12-16T05:11:17;54402.53;;;-139.56;100.00
22938;BME280;11634;42.734;23.298;2022-12-16T05:14:01;54402.53;;;-139.56;100.00
22938;BME280;11634;42.734;23.298;2022-12-16T05:16:46;54402.53;;;-139.56;100.00
22938;BME280;11634;42.734;23.298;2022-12-16T05:19:30;54402.53;;;-139.56;100.00
22938;BME280;11634;42.734;23.298;2022-12-16T05:22:29;54402.53;;;-139.56;100.00
22938;BME280;11634;42.734;23.298;2022-12-16T05:25:13;54402.53;;;-139.56;100.00
22938;BME280;11634;42.734;23.298;2022-12-16T05:27:57;54402.53;;;-139.56;100.00
22938;BME280;11634;42.734;23.298;2022-12-16T05:30:41;54402.53;;;-139.56;100.00
22938;BME280;11634;42.734;23.298;2022-12-16T05:33:26;54402.53;;;-139.56;100.00
22938;BME280;11634;42.734;23.298;2022-12-16T05:36:10;54402.53;;;-139.56;100.00
22938;BME280;11634;42.734;23.298;2022-12-16T05:38:55;54402.53;;;-139.56;100.00
22938;BME280;11634;42.734;23.298;2022-12-16T05:41:40;54402.53;;;-139.56;100.00
22938;BME280;11634;42.734;23.298;2022-12-16T05:44:25;54402.53;;;-139.56;100.00
22938;BME280;11634;42.734;23.298;2022-12-16T05:47:09;54402.53;;;-139.56;100.00
22938;BME280;11634;42.734;23.298;2022-12-16T05:49:53;54402.53;;;-139.56;100.00
22938;BME280;11634;42.734;23.298;2022-12-16T05:52:37;54402.53;;;-139.56;100.00
22938;BME280;11634;42.734;23.298;2022-12-16T05:55:23;54402.53;;;-139.56;100.00
22938;BME280;11634;42.734;23.298;2022-12-16T05:58:07;54402.53;;;-139.56;100.00
22938;BME280;11634;42.734;23.298;2022-12-16T06:00:51;54402.53;;;-139.56;100.00
22938;BME280;11634;42.734;23.298;2022-12-16T06:03:37;54402.53;;;-139.56;100.00
22938;BME280;11634;42.734;23.298;2022-12-16T06:06:21;54402.53;;;-139.56;100.00
22938;BME280;11634;42.734;23.298;2022-12-16T06:09:05;54402.53;;;-139.56;100.00
22938;BME280;11634;42.734;23.298;2022-12-16T06:11:50;54402.53;;;-139.56;100.00
22938;BME280;11634;42.734;23.298;2022-12-16T06:14:36;54402.53;;;-139.56;100.00
22938;BME280;11634;42.734;23.298;2022-12-16T06:17:20;54402.53;;;-139.56;100.00
22938;BME280;11634;42.734;23.298;2022-12-16T06:20:05;54402.53;;;-139.56;100.00
22938;BME280;11634;42.734;23.298;2022-12-16T06:22:51;54402.53;;;-139.56;100.00
22938;BME280;11634;42.734;23.298;2022-12-16T06:25:35;54402.53;;;-139.56;100.00
22938;BME280;11634;42.734;23.298;2022-12-16T06:28:20;54402.53;;;-139.56;100.00
22938;BME280;11634;42.734;23.298;2022-12-16T06:31:04;54402.53;;;-139.56;100.00
22938;BME280;11634;42.734;23.298;2022-12-16T06:33:48;54402.53;;;-139.56;100.00
22938;BME280;11634;42.734;23.298;2022-12-16T06:36:35;54402.53;;;-139.56;100.00
22938;BME280;11634;42.734;23.298;2022-12-16T06:39:20;54402.53;;;-139.56;100.00
22938;BME280;11634;42.734;23.298;2022-12-16T06:42:20;54402.53;;;-139.56;100.00
22938;BME280;11634;42.734;23.298;2022-12-16T06:45:15;54402.53;;;-139.56;100.00
22938;BME280;11634;42.734;23.298;2022-12-16T06:47:59;54402.53;;;-139.56;100.00
22938;BME280;11634;42.734;23.298;2022-12-16T06:50:45;54402.53;;;-139.56;100.00
22938;BME280;11634;42.734;23.298;2022-12-16T06:53:29;54402.53;;;-139.56;100.00
22938;BME280;11634;42.734;23.298;2022-12-16T06:56:14;54402.53;;;-139.56;100.00
22938;BME280;11634;42.734;23.298;2022-12-16T06:59:00;54402.53;;;-139.56;100.00
22938;BME280;11634;42.734;23.298;2022-12-16T07:01:54;54402.53;;;-139.56;100.00
22938;BME280;11634;42.734;23.298;2022-12-16T07:04:38;54402.53;;;-139.56;100.00
22938;BME280;11634;42.734;23.298;2022-12-16T07:07:22;54402.53;;;-139.56;100.00
22938;BME280;11634;42.734;23.298;2022-12-16T07:10:06;54402.53;;;-139.56;100.00
22938;BME280;11634;42.734;23.298;2022-12-16T07:12:56;54402.53;;;-139.56;100.00
22938;BME280;11634;42.734;23.298;2022-12-16T07:15:40;54402.53;;;-139.56;100.00
22938;BME280;11634;42.734;23.298;2022-12-16T07:18:26;54402.53;;;-139.56;100.00
22938;BME280;11634;42.734;23.298;2022-12-16T07:21:09;54402.53;;;-139.56;100.00
22938;BME280;11634;42.734;23.298;2022-12-16T07:23:53;54402.53;;;-139.56;100.00
22938;BME280;11634;42.734;23.298;2022-12-16T07:26:38;54402.53;;;-139.56;100.00
22938;BME280;11634;42.734;23.298;2022-12-16T07:29:22;54402.53;;;-139.56;100.00
22938;BME280;11634;42.734;23.298;2022-12-16T07:32:06;54402.53;;;-139.56;100.00
22938;BME280;11634;42.734;23.298;2022-12-16T07:34:50;54402.53;;;-139.56;100.00
22938;BME280;11634;42.734;23.298;2022-12-16T07:37:37;54402.53;;;-139.56;100.00
22938;BME280;11634;42.734;23.298;2022-12-16T07:40:21;54402.53;;;-139.56;100.00
22938;BME280;11634;42.734;23.298;2022-12-16T07:43:05;54402.53;;;-139.56;100.00
22938;BME280;11634;42.734;23.298;2022-12-16T07:45:49;54402.53;;;-139.56;100.00
22938;BME280;11634;42.734;23.298;2022-12-16T07:48:34;54402.53;;;-139.56;100.00
22938;BME280;11634;42.734;23.298;2022-12-16T07:51:18;54402.53;;;-139.56;100.00
22938;BME280;11634;42.734;23.298;2022-12-16T07:54:02;54402.53;;;-139.56;100.00
22938;BME280;11634;42.734;23.298;2022-12-16T07:56:46;54402.53;;;-139.56;100.00
22938;BME280;11634;42.734;23.298;2022-12-16T07:59:30;54402.53;;;-139.56;100.00
22938;BME280;11634;42.734;23.298;2022-12-16T08:02:14;54402.53;;;-139.56;100.00
22938;BME280;11634;42.734;23.298;2022-12-16T08:04:58;54402.53;;;-139.56;100.00
22938;BME280;11634;42.734;23.298;2022-12-16T08:07:43;54402.53;;;-139.56;100.00
22938;BME280;11634;42.734;23.298;2022-12-16T08:10:27;54402.53;;;-139.56;100.00
22938;BME280;11634;42.734;23.298;2022-12-16T08:13:11;54402.53;;;-139.56;100.00
22938;BME280;11634;42.734;23.298;2022-12-16T08:15:55;54402.53;;;-139.56;100.00
22938;BME280;11634;42.734;23.298;2022-12-16T08:18:42;54402.53;;;-139.56;100.00
22938;BME280;11634;42.734;23.298;2022-12-16T08:21:26;54402.53;;;-139.56;100.00
22938;BME280;11634;42.734;23.298;2022-12-16T08:24:12;54402.53;;;-139.56;100.00
22938;BME280;11634;42.734;23.298;2022-12-16T08:27:12;54402.53;;;-139.56;100.00
22938;BME280;11634;42.734;23.298;2022-12-16T08:30:13;54402.53;;;-139.56;100.00
22938;BME280;11634;42.734;23.298;2022-12-16T08:32:57;54402.53;;;-139.56;100.00
22938;BME280;11634;42.734;23.298;2022-12-16T08:35:41;54402.53;;;-139.56;100.00
22938;BME280;11634;42.734;23.298;2022-12-16T08:38:27;54402.53;;;-139.56;100.00
22938;BME280;11634;42.734;23.298;2022-12-16T08:41:11;54402.53;;;-139.56;100.00
22938;BME280;11634;42.734;23.298;2022-12-16T08:43:55;54402.53;;;-139.56;100.00
22938;BME280;11634;42.734;23.298;2022-12-16T08:46:40;54402.53;;;-139.56;100.00
22938;BME280;11634;42.734;23.298;2022-12-16T08:49:24;54402.53;;;-139.56;100.00
22938;BME280;11634;42.734;23.298;2022-12-16T08:52:08;54402.53;;;-139.56;100.00
22938;BME280;11634;42.734;23.298;2022-12-16T08:54:52;54402.53;;;-139.56;100.00
22938;BME280;11634;42.734;23.298;2022-12-16T08:57:36;54402.53;;;-139.56;100.00
22938;BME280;11634;42.734;23.298;2022-12-16T09:00:22;54402.53;;;-139.56;100.00
22938;BME280;11634;42.734;23.298;2022-12-16T09:03:06;54402.53;;;-139.56;100.00
22938;BME280;11634;42.734;23.298;2022-12-16T09:05:50;54402.53;;;-139.56;100.00
22938;BME280;11634;42.734;23.298;2022-12-16T09:08:34;54402.53;;;-139.56;100.00
22938;BME280;11634;42.734;23.298;2022-12-16T09:11:18;54402.53;;;-139.56;100.00
22938;BME280;11634;42.734;23.298;2022-12-16T09:14:02;54402.53;;;-139.56;100.00
22938;BME280;11634;42.734;23.298;2022-12-16T09:16:46;54402.53;;;-139.56;100.00
22938;BME280;11634;42.734;23.298;2022-12-16T09:19:32;54402.53;;;-139.56;100.00
22938;BME280;11634;42.734;23.298;2022-12-16T09:22:16;54402.53;;;-139.56;100.00
22938;BME280;11634;42.734;23.298;2022-12-16T09:25:13;54402.53;;;-139.56;100.00
22938;BME280;11634;42.734;23.298;2022-12-16T09:27:57;54402.53;;;-139.56;100.00
22938;BME280;11634;42.734;23.298;2022-12-16T09:30:41;54402.53;;;-139.56;100.00
22938;BME280;11634;42.734;23.298;2022-12-16T09:33:33;54402.53;;;-139.56;100.00
22938;BME280;11634;42.734;23.298;2022-12-16T09:36:17;54402.53;;;-139.56;100.00
22938;BME280;11634;42.734;23.298;2022-12-16T09:39:04;54402.53;;;-139.56;100.00
22938;BME280;11634;42.734;23.298;2022-12-16T09:48:19;54402.53;;;-139.56;100.00
22938;BME280;11634;42.734;23.298;2022-12-16T09:51:07;54402.53;;;-139.56;100.00
22938;BME280;11634;42.734;23.298;2022-12-16T09:53:53;54402.53;;;-139.56;100.00
22938;BME280;11634;42.734;23.298;2022-12-16T09:56:40;54402.53;;;-139.56;100.00
22938;BME280;11634;42.734;23.298;2022-12-16T09:59:37;54402.53;;;-139.56;100.00
22938;BME280;11634;42.734;23.298;2022-12-16T10:02:24;54402.53;;;-139.56;100.00
22938;BME280;11634;42.734;23.298;2022-12-16T10:05:14;54402.53;;;-139.56;100.00
22938;BME280;11634;42.734;23.298;2022-12-16T10:08:21;54402.53;;;-139.56;100.00
22938;BME280;11634;42.734;23.298;2022-12-16T10:11:22;54402.53;;;-139.56;100.00
22938;BME280;11634;42.734;23.298;2022-12-16T10:14:27;54402.53;;;-139.56;100.00
22938;BME280;11634;42.734;23.298;2022-12-16T10:17:20;54402.53;;;-139.56;100.00
22938;BME280;11634;42.734;23.298;2022-12-16T10:32:34;54402.53;;;-139.56;100.00
22938;BME280;11634;42.734;23.298;2022-12-16T10:35:22;54402.53;;;-139.56;100.00
22938;BME280;11634;42.734;23.298;2022-12-16T10:41:15;54402.53;;;-139.56;100.00
22938;BME280;11634;42.734;23.298;2022-12-16T10:44:05;54402.53;;;-139.56;100.00
22938;BME280;11634;42.734;23.298;2022-12-16T10:47:03;54402.53;;;-139.56;100.00
22938;BME280;11634;42.734;23.298;2022-12-16T10:49:50;54402.53;;;-139.56;100.00
22938;BME280;11634;42.734;23.298;2022-12-16T10:52:43;54402.53;;;-139.56;100.00
22938;BME280;11634;42.734;23.298;2022-12-16T10:58:51;54402.53;;;-139.56;100.00
22938;BME280;11634;42.734;23.298;2022-12-16T11:01:36;54402.53;;;-139.56;100.00
22938;BME280;11634;42.734;23.298;2022-12-16T11:04:35;54402.53;;;-139.56;100.00
22938;BME280;11634;42.734;23.298;2022-12-16T11:16:15;54402.53;;;-139.56;100.00
22938;BME280;11634;42.734;23.298;2022-12-16T11:19:00;54402.53;;;-139.56;100.00
22938;BME280;11634;42.734;23.298;2022-12-16T11:21:45;54402.53;;;-139.56;100.00
22938;BME280;11634;42.734;23.298;2022-12-16T11:24:30;54402.53;;;-139.56;100.00
22938;BME280;11634;42.734;23.298;2022-12-16T11:27:25;54402.53;;;-139.56;100.00
22938;BME280;11634;42.734;23.298;2022-12-16T11:32:58;54402.53;;;-139.56;100.00
22938;BME280;11634;42.734;23.298;2022-12-16T11:35:46;54402.53;;;-139.56;100.00
22938;BME280;11634;42.734;23.298;2022-12-16T11:38:47;54402.53;;;-139.56;100.00
22938;BME280;11634;42.734;23.298;2022-12-16T11:41:36;54402.53;;;-139.56;100.00
22938;BME280;11634;42.734;23.298;2022-12-16T11:44:25;54402.53;;;-139.56;100.00
22938;BME280;11634;42.734;23.298;2022-12-16T11:47:59;54402.53;;;-139.56;100.00
22938;BME280;11634;42.734;23.298;2022-12-16T11:50:53;54402.53;;;-139.56;100.00
22938;BME280;11634;42.734;23.298;2022-12-16T11:53:43;54402.53;;;-139.56;100.00
22938;BME280;11634;42.734;23.298;2022-12-16T11:56:37;54402.53;;;-139.56;100.00
22938;BME280;11634;42.734;23.298;2022-12-16T11:59:40;54402.53;;;-139.56;100.00
22938;BME280;11634;42.734;23.298;2022-12-16T12:02:33;54402.53;;;-139.56;100.00
22938;BME280;11634;42.734;23.298;2022-12-16T12:05:36;54402.53;;;-139.56;100.00
22938;BME280;11634;42.734;23.298;2022-12-16T12:09:22;54402.53;;;-139.56;100.00
22938;BME280;11634;42.734;23.298;2022-12-16T12:11:52;54402.53;;;-139.56;100.00
22938;BME280;11634;42.734;23.298;2022-12-16T12:14:45;54402.53;;;-139.56;100.00
22938;BME280;11634;42.734;23.298;2022-12-16T12:17:46;54402.53;;;-139.56;100.00
22938;BME280;11634;42.734;23.298;2022-12-16T12:26:32;54402.53;;;-139.56;100.00
22938;BME280;11634;42.734;23.298;2022-12-16T12:35:28;54402.53;;;-139.56;100.00
22938;BME280;11634;42.734;23.298;2022-12-16T12:38:33;54402.53;;;-139.56;100.00
22938;BME280;11634;42.734;23.298;2022-12-16T12:41:40;54402.53;;;-139.56;100.00
22938;BME280;11634;42.734;23.298;2022-12-16T12:45:22;54402.53;;;-139.56;100.00
22938;BME280;11634;42.734;23.298;2022-12-16T12:47:42;54402.53;;;-139.56;100.00
22938;BME280;11634;42.734;23.298;2022-12-16T12:50:43;54402.53;;;-139.56;100.00
22938;BME280;11634;42.734;23.298;2022-12-16T13:05:49;54402.53;;;-139.56;100.00
22938;BME280;11634;42.734;23.298;2022-12-16T13:08:54;54402.53;;;-139.56;100.00
22938;BME280;11634;42.734;23.298;2022-12-16T13:15:01;54402.53;;;-139.56;100.00
22938;BME280;11634;42.734;23.298;2022-12-16T18:36:27;94859.69;;;9.84;100.00
22938;BME280;11634;42.734;23.298;2022-12-16T18:39:11;94860.28;;;9.60;100.00
22938;BME280;11634;42.734;23.298;2022-12-16T18:41:55;94879.56;;;9.48;100.00
22938;BME280;11634;42.734;23.298;2022-12-16T18:44:44;94861.78;;;9.43;100.00
22938;BME280;11634;42.734;23.298;2022-12-16T18:47:36;54402.53;;;-139.56;100.00
22938;BME280;11634;42.734;23.298;2022-12-16T18:50:20;54402.53;;;-139.56;100.00
22938;BME280;11634;42.734;23.298;2022-12-16T18:53:08;54402.53;;;-139.56;100.00
22938;BME280;11634;42.734;23.298;2022-12-16T18:56:00;54402.53;;;-139.56;100.00
22938;BME280;11634;42.734;23.298;2022-12-16T23:19:52;94602.69;;;7.30;100.00
22938;BME280;11634;42.734;23.298;2022-12-16T23:22:38;94627.03;;;7.67;100.00
22938;BME280;11634;42.734;23.298;2022-12-16T23:25:23;94628.00;;;7.66;100.00
22938;BME280;11634;42.734;23.298;2022-12-16T23:28:08;94622.13;;;7.64;100.00
22938;BME280;11634;42.734;23.298;2022-12-16T23:30:54;94648.69;;;7.57;100.00
22938;BME280;11634;42.734;23.298;2022-12-16T23:33:39;94650.50;;;7.36;100.00
22938;BME280;11634;42.734;23.298;2022-12-16T23:36:25;94638.63;;;7.24;100.00
22938;BME280;11634;42.734;23.298;2022-12-16T23:39:10;94637.97;;;7.02;100.00
22938;BME280;11634;42.734;23.298;2022-12-16T23:41:54;94645.72;;;7.02;100.00
22938;BME280;11634;42.734;23.298;2022-12-16T23:44:38;94653.28;;;6.94;100.00
22938;BME280;11634;42.734;23.298;2022-12-16T23:47:24;94659.66;;;6.90;100.00
22938;BME280;11634;42.734;23.298;2022-12-16T23:50:08;94672.66;;;6.79;100.00
22938;BME280;11634;42.734;23.298;2022-12-16T23:53:07;94653.69;;;6.89;100.00
22938;BME280;11634;42.734;23.298;2022-12-16T23:55:57;94661.69;;;6.86;100.00
22938;BME280;11634;42.734;23.298;2022-12-16T23:58:43;94671.34;;;6.84;100.00
